createdAt,value
2024-05-09T00:01:30.358Z,23.23
2024-05-09T00:04:00.273Z,28.20
2024-05-09T00:06:30.335Z,36.10
2024-05-09T00:09:00.312Z,27.48
2024-05-09T00:11:30.430Z,35.78
2024-05-09T00:14:00.419Z,35.05
2024-05-09T00:16:30.426Z,25.58
2024-05-09T00:19:00.564Z,23.67
2024-05-09T00:21:30.524Z,23.13
2024-05-09T00:24:00.549Z,32.25
2024-05-09T00:26:30.587Z,31.20
2024-05-09T00:29:00.591Z,25.15
2024-05-09T00:31:30.710Z,19.60
2024-05-09T00:34:01.622Z,22.35
2024-05-09T00:36:31.764Z,20.42
2024-05-09T00:39:01.846Z,16.52
2024-05-09T00:41:31.981Z,27.27
2024-05-09T00:44:03.493Z,21.65
2024-05-09T00:46:33.818Z,25.52
2024-05-09T00:49:04.465Z,21.10
2024-05-09T00:51:34.648Z,27.08
2024-05-09T00:54:06.786Z,21.65
2024-05-09T00:56:38.514Z,23.95
2024-05-09T00:59:09.929Z,20.90
2024-05-09T01:01:40.210Z,27.52
2024-05-09T01:04:12.446Z,23.98
2024-05-09T01:06:42.826Z,24.80
2024-05-09T01:09:12.926Z,28.80
2024-05-09T01:11:43.968Z,25.83
2024-05-09T01:14:14.099Z,21.90
2024-05-09T01:16:44.734Z,24.73
2024-05-09T01:19:33.465Z,20.15
2024-05-09T01:22:05.506Z,43.03
2024-05-09T01:24:35.625Z,21.45
2024-05-09T01:27:05.866Z,23.17
2024-05-09T01:29:36.085Z,29.52
2024-05-09T01:32:06.712Z,18.98
2024-05-09T01:34:37.043Z,22.70
2024-05-09T01:37:07.032Z,21.83
2024-05-09T01:39:37.096Z,17.85
2024-05-09T01:42:07.456Z,24.10
2024-05-09T01:44:37.351Z,29.90
2024-05-09T01:47:07.489Z,20.42
2024-05-09T01:49:39.610Z,24.23
2024-05-09T01:52:09.677Z,20.65
2024-05-09T01:54:39.574Z,29.27
2024-05-09T01:57:09.553Z,13.68
2024-05-09T01:59:39.618Z,24.63
2024-05-09T02:02:09.859Z,23.98
2024-05-09T02:04:39.997Z,16.65
2024-05-09T02:07:10.484Z,18.20
2024-05-09T02:09:40.458Z,23.10
2024-05-09T02:12:10.802Z,19.30
2024-05-09T02:14:40.874Z,16.23
2024-05-09T02:17:10.865Z,15.00
2024-05-09T02:19:40.848Z,16.38
2024-05-09T02:22:10.820Z,23.58
2024-05-09T02:24:40.754Z,13.23
2024-05-09T02:27:10.675Z,18.05
2024-05-09T02:29:40.600Z,14.48
2024-05-09T02:32:11.219Z,15.05
2024-05-09T02:34:41.217Z,20.52
2024-05-09T02:37:11.360Z,29.35
2024-05-09T02:39:41.303Z,22.90
2024-05-09T02:42:11.518Z,23.73
2024-05-09T02:44:41.488Z,18.83
2024-05-09T02:47:11.722Z,15.27
2024-05-09T02:49:41.724Z,18.88
2024-05-09T02:52:11.843Z,15.90
2024-05-09T02:54:41.860Z,13.52
2024-05-09T02:57:11.896Z,16.20
2024-05-09T02:59:41.890Z,15.43
2024-05-09T03:02:12.174Z,17.25
2024-05-09T03:04:44.513Z,22.25
2024-05-09T03:07:14.683Z,12.35
2024-05-09T03:09:49.420Z,23.48
2024-05-09T03:12:19.652Z,14.73
2024-05-09T03:14:52.837Z,16.30
2024-05-09T03:17:25.427Z,21.05
2024-05-09T03:19:55.520Z,14.20
2024-05-09T03:22:25.627Z,12.68
2024-05-09T03:24:55.653Z,12.98
2024-05-09T03:27:26.216Z,19.02
2024-05-09T03:29:56.318Z,17.08
2024-05-09T03:32:26.500Z,16.52
2024-05-09T03:34:56.687Z,14.60
2024-05-09T03:37:26.768Z,18.65
2024-05-09T03:39:56.841Z,21.65
2024-05-09T03:42:26.850Z,14.95
2024-05-09T03:44:56.843Z,14.95
2024-05-09T03:47:27.120Z,15.73
2024-05-09T03:49:57.213Z,30.73
2024-05-09T03:52:27.810Z,11.05
2024-05-09T03:54:57.708Z,11.38
2024-05-09T03:57:27.772Z,11.55
2024-05-09T03:59:57.687Z,11.02
2024-05-09T04:02:27.711Z,18.98
2024-05-09T04:04:57.718Z,13.32
2024-05-09T04:07:27.638Z,13.45
2024-05-09T04:09:57.574Z,12.27
2024-05-09T04:12:27.528Z,9.55
2024-05-09T04:14:57.571Z,11.38
2024-05-09T04:17:27.626Z,16.45
2024-05-09T04:19:57.938Z,12.93
2024-05-09T04:22:27.848Z,10.63
2024-05-09T04:24:57.855Z,11.82
2024-05-09T04:27:27.783Z,15.38
2024-05-09T04:29:57.707Z,13.70
2024-05-09T04:32:28.453Z,16.15
2024-05-09T04:34:58.550Z,12.50
2024-05-09T04:37:28.428Z,13.93
2024-05-09T04:40:01.682Z,11.30
2024-05-09T04:42:31.617Z,12.80
2024-05-09T04:45:01.544Z,13.07
2024-05-09T04:47:31.572Z,13.07
2024-05-09T04:50:01.747Z,11.07
2024-05-09T04:52:31.926Z,14.90
2024-05-09T04:55:01.917Z,11.10
2024-05-09T04:57:31.918Z,13.05
2024-05-09T05:00:03.016Z,11.35
2024-05-09T05:02:34.371Z,14.02
2024-05-09T05:05:04.951Z,11.77
2024-05-09T05:07:35.051Z,10.75
2024-05-09T05:10:05.947Z,11.35
2024-05-09T05:12:54.287Z,11.10
2024-05-09T05:15:24.230Z,14.52
2024-05-09T05:17:54.307Z,16.10
2024-05-09T05:20:31.233Z,11.77
2024-05-09T05:23:03.766Z,13.63
2024-05-09T05:25:33.860Z,12.90
2024-05-09T05:28:03.954Z,18.80
2024-05-09T05:30:35.003Z,10.05
2024-05-09T05:33:07.831Z,15.32
2024-05-09T05:35:38.583Z,12.57
2024-05-09T05:38:12.607Z,13.00
2024-05-09T05:40:42.630Z,12.63
2024-05-09T05:43:20.175Z,10.60
2024-05-09T05:45:50.191Z,13.15
2024-05-09T05:48:20.594Z,14.02
2024-05-09T05:50:50.787Z,12.43
2024-05-09T05:53:20.957Z,15.60
2024-05-09T05:55:50.991Z,14.57
2024-05-09T05:58:21.593Z,12.77
2024-05-09T06:00:54.439Z,11.55
2024-05-09T06:03:24.475Z,10.40
2024-05-09T06:05:54.414Z,13.20
2024-05-09T06:08:26.201Z,14.05
2024-05-09T06:10:57.854Z,12.30
2024-05-09T06:13:27.884Z,11.52
2024-05-09T06:15:57.794Z,18.63
2024-05-09T06:18:28.942Z,15.45
2024-05-09T06:20:59.075Z,13.88
2024-05-09T06:23:29.079Z,13.30
2024-05-09T06:25:59.199Z,12.52
2024-05-09T06:28:29.200Z,15.95
2024-05-09T06:30:59.255Z,16.05
2024-05-09T06:33:30.201Z,12.20
2024-05-09T06:36:03.484Z,11.30
2024-05-09T06:38:34.241Z,12.20
2024-05-09T06:41:04.373Z,15.23
2024-05-09T06:43:34.933Z,17.45
2024-05-09T06:46:04.873Z,19.70
2024-05-09T06:48:34.991Z,11.52
2024-05-09T06:51:06.170Z,13.40
2024-05-09T06:53:36.933Z,12.65
2024-05-09T06:56:07.644Z,14.80
2024-05-09T06:58:37.643Z,12.52
2024-05-09T07:01:08.317Z,15.15
2024-05-09T07:03:38.384Z,13.10
2024-05-09T07:06:08.684Z,15.48
2024-05-09T07:08:38.806Z,14.88
2024-05-09T07:11:09.012Z,11.57
2024-05-09T07:13:39.004Z,11.32
2024-05-09T07:16:09.213Z,11.27
2024-05-09T07:18:39.441Z,9.85
2024-05-09T07:21:10.213Z,12.55
2024-05-09T07:23:40.981Z,11.50
2024-05-09T07:26:11.760Z,11.10
2024-05-09T07:28:42.070Z,11.15
2024-05-09T07:31:12.528Z,10.88
2024-05-09T07:33:43.277Z,10.57
2024-05-09T07:36:13.325Z,11.18
2024-05-09T07:38:43.313Z,12.82
2024-05-09T07:41:13.442Z,9.80
2024-05-09T07:43:45.721Z,8.88
2024-05-09T07:53:57.135Z,11.98
2024-05-09T07:56:30.073Z,12.05
2024-05-09T07:59:00.387Z,11.65
2024-05-09T08:01:30.511Z,9.88
2024-05-09T08:04:00.786Z,9.15
2024-05-09T08:06:30.965Z,11.52
2024-05-09T08:09:05.445Z,9.60
2024-05-09T08:11:38.298Z,9.38
2024-05-09T08:14:08.405Z,22.02
2024-05-09T08:16:38.466Z,13.82
2024-05-09T08:19:08.637Z,11.68
2024-05-09T08:21:38.897Z,11.50
2024-05-09T08:24:09.082Z,11.90
2024-05-09T08:26:39.611Z,13.93
2024-05-09T08:29:09.600Z,11.70
2024-05-09T08:31:43.014Z,14.27
2024-05-09T08:34:13.570Z,14.75
2024-05-09T08:36:43.727Z,15.15
2024-05-09T08:39:13.701Z,10.35
2024-05-09T08:41:50.577Z,15.15
2024-05-09T08:44:22.939Z,15.77
2024-05-09T08:46:55.911Z,12.70
2024-05-09T08:49:27.978Z,13.48
2024-05-09T08:51:58.101Z,16.05
2024-05-09T08:54:28.081Z,10.60
2024-05-09T08:56:59.030Z,13.07
2024-05-09T08:59:53.718Z,17.00
2024-05-09T09:02:26.100Z,20.85
2024-05-09T09:05:18.361Z,10.85
2024-05-09T09:07:52.907Z,15.25
2024-05-09T09:10:31.486Z,12.93
2024-05-09T09:13:05.878Z,13.25
2024-05-09T09:15:35.953Z,13.90
2024-05-09T09:18:07.852Z,10.85
2024-05-09T09:20:40.581Z,11.60
2024-05-09T09:23:11.005Z,10.27
2024-05-09T09:25:44.407Z,14.18
2024-05-09T09:28:15.737Z,14.02
2024-05-09T09:30:46.283Z,13.75
2024-05-09T09:33:17.306Z,14.93
2024-05-09T09:35:47.477Z,18.08
2024-05-09T09:38:25.754Z,11.82
2024-05-09T09:40:56.158Z,9.90
2024-05-09T09:43:27.846Z,16.08
2024-05-09T09:46:00.993Z,17.05
2024-05-09T09:48:37.499Z,13.50
2024-05-09T09:51:09.615Z,16.23
2024-05-09T09:53:41.264Z,21.20
2024-05-09T09:56:13.783Z,26.27
2024-05-09T09:58:47.178Z,23.75
2024-05-09T10:01:17.483Z,17.15
2024-05-09T10:03:47.782Z,17.45
2024-05-09T10:06:19.641Z,17.60
2024-05-09T10:08:51.496Z,21.65
2024-05-09T10:11:25.456Z,22.25
2024-05-09T10:13:58.238Z,22.20
2024-05-09T10:16:33.828Z,26.00
2024-05-09T10:19:04.383Z,41.03
2024-05-09T10:21:34.585Z,24.98
2024-05-09T10:24:08.496Z,24.23
2024-05-09T10:26:40.476Z,26.55
2024-05-09T10:29:17.438Z,29.65
2024-05-09T10:31:49.606Z,25.38
2024-05-09T10:34:25.380Z,18.75
2024-05-09T10:36:56.607Z,18.20
2024-05-09T10:39:28.415Z,17.50
2024-05-09T10:41:58.478Z,40.15
2024-05-09T10:44:28.522Z,19.38
2024-05-09T10:46:58.850Z,18.15
2024-05-09T10:49:29.184Z,16.67
2024-05-09T10:51:59.252Z,18.67
2024-05-09T10:54:38.785Z,16.45
2024-05-09T10:57:09.547Z,18.02
2024-05-09T10:59:41.068Z,15.25
2024-05-09T11:02:13.090Z,10.88
2024-05-09T11:04:46.056Z,14.40
2024-05-09T11:07:22.902Z,18.30
2024-05-09T11:09:53.276Z,14.77
2024-05-09T11:12:24.934Z,11.38
2024-05-09T11:14:58.532Z,18.27
2024-05-09T11:17:28.707Z,22.20
2024-05-09T11:19:58.745Z,18.08
2024-05-09T11:22:35.153Z,13.27
2024-05-09T11:25:05.791Z,13.07
2024-05-09T11:27:35.939Z,12.30
2024-05-09T11:30:09.173Z,13.65
2024-05-09T11:32:41.600Z,11.00
2024-05-09T11:35:11.656Z,11.70
2024-05-09T11:37:44.046Z,12.88
2024-05-09T11:40:21.254Z,12.35
2024-05-09T11:42:55.420Z,8.82
2024-05-09T11:45:25.287Z,9.27
2024-05-09T11:47:55.718Z,11.23
2024-05-09T11:50:30.070Z,11.70
2024-05-09T11:53:04.990Z,9.80
2024-05-09T11:55:37.818Z,14.88
2024-05-09T11:58:09.545Z,10.57
2024-05-09T12:00:39.829Z,7.88
2024-05-09T12:03:10.630Z,12.52
2024-05-09T12:05:41.010Z,9.85
2024-05-09T12:08:11.588Z,9.00
2024-05-09T12:10:41.915Z,6.75
2024-05-09T12:13:12.075Z,8.25
2024-05-09T12:15:42.174Z,6.40
2024-05-09T12:18:12.530Z,6.78
2024-05-09T12:20:42.534Z,8.73
2024-05-09T12:23:12.596Z,4.82
2024-05-09T12:25:42.583Z,5.57
2024-05-09T12:28:12.705Z,6.97
2024-05-09T12:30:42.956Z,9.63
2024-05-09T12:33:15.372Z,6.18
2024-05-09T12:35:47.347Z,6.15
2024-05-09T12:38:20.242Z,6.72
2024-05-09T12:40:50.405Z,14.32
2024-05-09T12:43:20.672Z,10.75
2024-05-09T12:45:50.940Z,12.43
2024-05-09T12:48:21.153Z,12.73
2024-05-09T12:50:51.311Z,10.13
2024-05-09T12:53:21.398Z,12.25
2024-05-09T12:55:56.924Z,14.25
2024-05-09T12:58:30.310Z,15.55
2024-05-09T13:01:00.391Z,12.35
2024-05-09T13:03:31.498Z,13.85
2024-05-09T13:06:01.830Z,18.42
2024-05-09T13:08:32.003Z,7.38
2024-05-09T13:11:02.553Z,11.70
2024-05-09T13:13:32.623Z,8.48
2024-05-09T13:16:02.915Z,8.57
2024-05-09T13:18:34.752Z,7.03
2024-05-09T13:21:04.998Z,10.38
2024-05-09T13:23:34.981Z,9.75
2024-05-09T13:26:05.273Z,15.55
2024-05-09T13:28:35.557Z,11.45
2024-05-09T13:31:06.410Z,14.05
2024-05-09T13:33:37.660Z,15.93
2024-05-09T13:36:08.475Z,11.75
2024-05-09T13:38:38.563Z,14.52
2024-05-09T13:41:08.671Z,14.65
2024-05-09T13:43:38.853Z,12.90
2024-05-09T13:46:08.977Z,14.50
2024-05-09T13:48:39.321Z,16.05
2024-05-09T13:51:09.401Z,18.15
2024-05-09T13:53:39.336Z,19.38
2024-05-09T13:56:10.044Z,17.05
2024-05-09T13:58:40.474Z,29.08
2024-05-09T14:01:10.622Z,24.05
2024-05-09T14:03:40.932Z,17.15
2024-05-09T14:06:13.096Z,21.63
2024-05-09T14:08:43.714Z,17.90
2024-05-09T14:11:13.827Z,13.23
2024-05-09T14:13:43.907Z,11.18
2024-05-09T14:16:14.486Z,10.70
2024-05-09T14:18:44.663Z,11.23
2024-05-09T14:21:14.672Z,11.80
2024-05-09T14:23:44.701Z,10.80
2024-05-09T14:26:15.421Z,9.05
2024-05-09T14:28:45.388Z,11.32
2024-05-09T14:31:15.563Z,9.65
2024-05-09T14:33:45.771Z,8.88
2024-05-09T14:36:15.921Z,9.13
2024-05-09T14:38:46.085Z,9.38
2024-05-09T14:41:16.001Z,11.05
2024-05-09T14:43:45.960Z,13.85
2024-05-09T14:46:16.108Z,9.95
2024-05-09T14:48:46.128Z,10.90
2024-05-09T14:51:17.695Z,10.27
2024-05-09T14:53:47.692Z,11.30
2024-05-09T14:56:17.619Z,8.85
2024-05-09T14:58:47.680Z,8.38
2024-05-09T15:01:18.136Z,10.80
2024-05-09T15:03:48.236Z,11.73
2024-05-09T15:06:20.234Z,8.95
2024-05-09T15:08:58.243Z,10.90
2024-05-09T15:11:28.937Z,7.93
2024-05-09T15:13:58.934Z,11.20
2024-05-09T15:16:29.285Z,14.88
2024-05-09T15:19:00.958Z,10.65
2024-05-09T15:21:31.206Z,8.75
2024-05-09T15:24:01.680Z,12.98
2024-05-09T15:26:31.626Z,11.02
2024-05-09T15:29:01.646Z,11.02
2024-05-09T15:31:32.302Z,12.88
2024-05-09T15:34:02.538Z,8.93
2024-05-09T15:36:32.592Z,7.63
2024-05-09T15:39:03.003Z,8.52
2024-05-09T15:41:32.912Z,7.90
2024-05-09T15:44:02.873Z,7.38
2024-05-09T15:46:33.179Z,8.45
2024-05-09T15:49:03.592Z,10.30
2024-05-09T15:51:33.616Z,8.15
2024-05-09T15:54:03.600Z,8.70
2024-05-09T15:56:34.022Z,10.13
2024-05-09T15:59:04.206Z,10.63
2024-05-09T16:01:34.309Z,10.15
2024-05-09T16:04:04.648Z,8.55
2024-05-09T16:06:36.025Z,12.88
2024-05-09T16:09:07.810Z,10.80
2024-05-09T16:11:37.707Z,8.45
2024-05-09T16:14:08.438Z,7.95
2024-05-09T16:16:38.597Z,10.55
2024-05-09T16:19:08.866Z,7.68
2024-05-09T16:21:38.987Z,10.70
2024-05-09T16:24:09.200Z,8.35
2024-05-09T16:26:39.272Z,9.65
2024-05-09T16:29:09.852Z,10.52
2024-05-09T16:31:40.230Z,8.32
2024-05-09T16:34:11.094Z,11.55
2024-05-09T16:36:41.249Z,11.60
2024-05-09T16:39:11.775Z,9.77
2024-05-09T16:41:41.685Z,11.80
2024-05-09T16:44:11.613Z,8.27
2024-05-09T16:46:41.771Z,11.10
2024-05-09T16:49:12.318Z,10.63
2024-05-09T16:51:42.256Z,11.05
2024-05-09T16:54:12.212Z,8.60
2024-05-09T16:56:42.214Z,11.02
2024-05-09T16:59:12.679Z,10.35
2024-05-09T17:01:42.707Z,12.63
2024-05-09T17:04:12.807Z,13.50
2024-05-09T17:06:43.218Z,13.45
2024-05-09T17:09:15.663Z,9.98
2024-05-09T17:11:47.976Z,9.52
2024-05-09T17:14:18.112Z,9.98
2024-05-09T17:16:48.117Z,11.60
2024-05-09T17:19:18.606Z,9.75
2024-05-09T17:21:48.494Z,10.65
2024-05-09T17:24:18.558Z,17.30
2024-05-09T17:26:48.680Z,14.98
2024-05-09T17:29:18.732Z,13.45
2024-05-09T17:31:48.694Z,12.65
2024-05-09T17:34:19.595Z,14.68
2024-05-09T17:36:49.695Z,13.90
2024-05-09T17:39:19.746Z,13.02
2024-05-09T17:41:49.716Z,8.93
2024-05-09T17:44:19.674Z,13.07
2024-05-09T17:46:50.037Z,12.32
2024-05-09T17:49:20.706Z,14.27
2024-05-09T17:51:57.023Z,11.20
2024-05-09T17:54:27.016Z,10.93
2024-05-09T17:56:57.091Z,11.93
2024-05-09T17:59:27.415Z,10.05
2024-05-09T18:01:57.443Z,11.68
2024-05-09T18:04:29.079Z,13.73
2024-05-09T18:07:01.050Z,11.27
2024-05-09T18:09:31.014Z,18.33
2024-05-09T18:12:01.454Z,12.02
2024-05-09T18:14:31.483Z,10.95
2024-05-09T18:17:01.516Z,15.85
2024-05-09T18:19:31.660Z,10.35
2024-05-09T18:22:01.786Z,8.88
2024-05-09T18:24:31.826Z,11.38
2024-05-09T18:27:02.226Z,11.63
2024-05-09T18:29:32.398Z,14.60
2024-05-09T18:32:02.739Z,12.20
2024-05-09T18:34:33.430Z,9.98
2024-05-09T18:37:04.534Z,14.23
2024-05-09T18:39:34.716Z,13.43
2024-05-09T18:42:04.725Z,12.40
2024-05-09T18:44:34.862Z,12.15
2024-05-09T18:47:05.549Z,14.68
2024-05-09T18:49:35.709Z,14.07
2024-05-09T18:52:05.915Z,12.57
2024-05-09T18:54:35.910Z,14.10
2024-05-09T18:57:06.022Z,13.85
2024-05-09T18:59:35.949Z,13.95
2024-05-09T19:02:06.506Z,13.50
2024-05-09T19:04:36.882Z,12.38
2024-05-09T19:07:07.213Z,13.48
2024-05-09T19:09:37.223Z,14.07
2024-05-09T19:12:07.903Z,11.70
2024-05-09T19:14:37.814Z,13.23
2024-05-09T19:17:07.749Z,12.93
2024-05-09T19:19:38.308Z,16.52
2024-05-09T19:22:11.217Z,16.63
2024-05-09T19:24:41.181Z,12.00
2024-05-09T19:27:11.103Z,11.27
2024-05-09T19:29:41.142Z,11.73
2024-05-09T19:32:11.713Z,15.10
2024-05-09T19:34:41.749Z,11.27
2024-05-09T19:37:11.779Z,16.75
2024-05-09T19:39:41.718Z,12.13
2024-05-09T19:42:11.655Z,12.43
2024-05-09T19:44:41.569Z,11.70
2024-05-09T19:47:11.532Z,12.05
2024-05-09T19:49:41.588Z,11.63
2024-05-09T19:52:11.551Z,11.73
2024-05-09T19:54:41.664Z,11.93
2024-05-09T19:57:11.742Z,12.25
2024-05-09T19:59:41.612Z,13.60
2024-05-09T20:02:11.698Z,11.63
2024-05-09T20:04:44.195Z,12.98
2024-05-09T20:07:14.952Z,13.45
2024-05-09T20:09:44.951Z,18.63
2024-05-09T20:12:14.905Z,20.98
2024-05-09T20:14:44.862Z,12.95
2024-05-09T20:17:14.992Z,14.45
2024-05-09T20:19:46.374Z,12.63
2024-05-09T20:22:16.583Z,12.40
2024-05-09T20:24:46.688Z,12.63
2024-05-09T20:27:16.704Z,13.27
2024-05-09T20:29:47.350Z,13.93
2024-05-09T20:32:17.431Z,12.77
2024-05-09T20:34:51.908Z,12.68
2024-05-09T20:37:22.242Z,15.18
2024-05-09T20:39:52.267Z,14.65
2024-05-09T20:42:22.386Z,17.17
2024-05-09T20:44:52.525Z,13.00
2024-05-09T20:47:22.565Z,12.40
2024-05-09T20:49:52.677Z,13.45
2024-05-09T20:52:22.774Z,12.55
2024-05-09T20:54:52.800Z,11.82
2024-05-09T20:57:23.060Z,12.52
2024-05-09T20:59:53.023Z,13.10
2024-05-09T21:02:23.212Z,17.50
2024-05-09T21:04:53.611Z,16.42
2024-05-09T21:07:23.645Z,15.60
2024-05-09T21:09:53.807Z,16.90
2024-05-09T21:12:23.853Z,17.80
2024-05-09T21:14:53.855Z,17.77
2024-05-09T21:17:24.386Z,17.13
2024-05-09T21:19:54.650Z,19.00
2024-05-09T21:22:24.631Z,15.80
2024-05-09T21:24:54.819Z,16.38
2024-05-09T21:27:25.810Z,15.82
2024-05-09T21:29:55.844Z,15.98
2024-05-09T21:32:26.459Z,15.38
2024-05-09T21:34:56.541Z,17.02
2024-05-09T21:37:26.530Z,20.02
2024-05-09T21:39:56.393Z,19.67
2024-05-09T21:42:26.380Z,17.65
2024-05-09T21:44:56.285Z,17.20
2024-05-09T21:47:26.306Z,17.80
2024-05-09T21:49:56.301Z,16.90
2024-05-09T21:52:26.221Z,16.35
2024-05-09T21:54:56.146Z,17.73
2024-05-09T21:57:26.074Z,16.80
2024-05-09T21:59:55.964Z,19.80
2024-05-09T22:02:26.090Z,18.17
2024-05-09T22:04:56.115Z,19.05
2024-05-09T22:07:26.135Z,19.00
2024-05-09T22:09:56.051Z,20.13
2024-05-09T22:12:26.107Z,19.30
2024-05-09T22:14:56.077Z,20.90
2024-05-09T22:17:26.187Z,20.23
2024-05-09T22:19:56.318Z,22.40
2024-05-09T22:22:26.780Z,21.52
2024-05-09T22:24:56.796Z,21.20
2024-05-09T22:27:26.687Z,21.55
2024-05-09T22:29:56.583Z,22.08
2024-05-09T22:32:26.603Z,22.67
2024-05-09T22:34:56.628Z,22.08
2024-05-09T22:37:26.575Z,22.92
2024-05-09T22:39:56.516Z,24.23
2024-05-09T22:42:26.448Z,22.45
2024-05-09T22:44:56.508Z,21.35
2024-05-09T22:47:26.433Z,21.02
2024-05-09T22:49:56.423Z,21.15
2024-05-09T22:52:26.358Z,22.38
2024-05-09T22:54:56.431Z,24.02
2024-05-09T22:57:26.494Z,26.48
2024-05-09T22:59:56.509Z,29.30
2024-05-09T23:02:26.761Z,29.73
2024-05-09T23:04:57.212Z,30.63
2024-05-09T23:07:27.312Z,29.15
2024-05-09T23:09:57.307Z,27.17
2024-05-09T23:12:27.335Z,27.40
2024-05-09T23:14:57.530Z,26.92
2024-05-09T23:17:27.549Z,26.00
2024-05-09T23:19:57.579Z,24.92
2024-05-09T23:22:30.400Z,24.48
2024-05-09T23:25:00.370Z,28.50
2024-05-09T23:27:30.371Z,24.35
2024-05-09T23:30:00.600Z,25.80
2024-05-09T23:32:30.685Z,25.42
2024-05-09T23:35:01.490Z,27.80
2024-05-09T23:37:31.400Z,24.30
2024-05-09T23:40:01.405Z,27.30
2024-05-09T23:42:31.666Z,33.92
2024-05-09T23:45:01.563Z,27.40
2024-05-09T23:47:31.633Z,28.95
2024-05-09T23:50:02.723Z,25.52
2024-05-09T23:52:34.269Z,28.98
2024-05-09T23:55:04.400Z,26.95
2024-05-09T23:57:34.524Z,35.53
